createdAt,value
2023-05-24T00:00:31.986Z,16.50
2023-05-24T00:02:59.772Z,16.60
2023-05-24T00:05:27.385Z,16.60
2023-05-24T00:07:54.628Z,16.60
2023-05-24T00:10:22.085Z,16.60
2023-05-24T00:12:49.706Z,16.60
2023-05-24T00:15:17.360Z,16.60
2023-05-24T00:17:44.934Z,16.50
2023-05-24T00:20:13.788Z,16.50
2023-05-24T00:22:42.364Z,16.40
2023-05-24T00:25:10.076Z,16.50
2023-05-24T00:27:38.015Z,16.50
2023-05-24T00:30:07.636Z,16.40
2023-05-24T00:32:35.610Z,16.40
2023-05-24T00:35:04.205Z,16.40
2023-05-24T00:37:32.543Z,16.40
2023-05-24T00:39:59.835Z,16.40
2023-05-24T00:42:27.431Z,16.40
2023-05-24T00:44:54.936Z,16.40
2023-05-24T00:47:23.239Z,16.40
2023-05-24T00:49:50.725Z,16.40
2023-05-24T00:52:18.475Z,16.40
2023-05-24T00:54:46.686Z,16.40
2023-05-24T00:57:14.313Z,16.40
2023-05-24T00:59:42.270Z,16.40
2023-05-24T01:02:09.481Z,16.40
2023-05-24T01:04:38.396Z,16.40
2023-05-24T01:07:19.120Z,16.40
2023-05-24T01:10:13.501Z,16.40
2023-05-24T01:13:20.983Z,16.40
2023-05-24T01:16:08.488Z,16.30
2023-05-24T01:18:41.307Z,16.40
2023-05-24T01:21:48.427Z,16.40
2023-05-24T01:24:18.298Z,16.30
2023-05-24T01:26:56.650Z,16.30
2023-05-24T01:29:25.008Z,16.30
2023-05-24T01:31:52.477Z,16.30
2023-05-24T01:34:20.704Z,16.30
2023-05-24T01:36:48.010Z,16.30
2023-05-24T01:39:15.227Z,16.30
2023-05-24T01:42:02.831Z,16.30
2023-05-24T01:44:40.305Z,16.30
2023-05-24T01:47:21.807Z,16.20
2023-05-24T01:49:54.047Z,16.30
2023-05-24T01:52:25.655Z,16.30
2023-05-24T01:54:55.831Z,16.30
2023-05-24T01:57:24.053Z,16.30
2023-05-24T01:59:52.216Z,16.30
2023-05-24T02:02:19.765Z,16.30
2023-05-24T02:04:47.624Z,16.30
2023-05-24T02:07:14.926Z,16.20
2023-05-24T02:09:42.319Z,16.30
2023-05-24T02:12:10.522Z,16.20
2023-05-24T02:14:39.724Z,16.30
2023-05-24T02:17:07.176Z,16.30
2023-05-24T02:19:37.399Z,16.30
2023-05-24T02:22:07.638Z,16.30
2023-05-24T02:24:35.081Z,16.30
2023-05-24T02:27:04.048Z,16.30
2023-05-24T02:29:31.501Z,16.20
2023-05-24T02:31:58.759Z,16.20
2023-05-24T02:34:26.046Z,16.30
2023-05-24T02:36:54.563Z,16.30
2023-05-24T02:39:21.999Z,16.30
2023-05-24T02:41:49.749Z,16.30
2023-05-24T02:44:17.246Z,16.40
2023-05-24T02:46:44.696Z,16.30
2023-05-24T02:49:12.312Z,16.30
2023-05-24T02:51:39.734Z,16.30
2023-05-24T02:54:07.569Z,16.30
2023-05-24T02:56:34.919Z,16.30
2023-05-24T02:59:03.626Z,16.30
2023-05-24T03:01:31.329Z,16.30
2023-05-24T03:04:00.610Z,16.20
2023-05-24T03:06:28.430Z,16.20
2023-05-24T03:08:56.469Z,16.20
2023-05-24T03:11:26.537Z,16.20
2023-05-24T03:13:55.073Z,16.20
2023-05-24T03:16:23.790Z,16.20
2023-05-24T03:18:56.551Z,16.20
2023-05-24T03:21:25.973Z,16.20
2023-05-24T03:23:55.371Z,16.20
2023-05-24T03:26:24.321Z,16.10
2023-05-24T03:28:55.497Z,16.10
2023-05-24T03:31:30.136Z,16.10
2023-05-24T03:33:59.742Z,16.10
2023-05-24T03:36:30.089Z,16.10
2023-05-24T03:38:59.681Z,16.10
2023-05-24T03:41:28.654Z,16.10
2023-05-24T03:44:01.496Z,16.10
2023-05-24T03:46:32.066Z,16.10
2023-05-24T03:49:01.181Z,16.10
2023-05-24T03:51:30.091Z,16.20
2023-05-24T03:53:59.322Z,16.10
2023-05-24T03:56:27.816Z,16.20
2023-05-24T03:58:58.377Z,16.20
2023-05-24T04:01:33.492Z,16.20
2023-05-24T04:04:08.137Z,16.20
2023-05-24T04:06:38.581Z,16.20
2023-05-24T04:09:06.788Z,16.20
2023-05-24T04:11:36.576Z,16.20
2023-05-24T04:14:05.093Z,16.20
2023-05-24T04:16:34.718Z,16.30
2023-05-24T04:19:06.302Z,16.30
2023-05-24T04:21:37.362Z,16.30
2023-05-24T04:24:07.338Z,16.30
2023-05-24T04:26:35.695Z,16.30
2023-05-24T04:29:04.290Z,16.30
2023-05-24T04:31:34.943Z,16.30
2023-05-24T04:34:03.725Z,16.30
2023-05-24T04:36:34.534Z,16.30
2023-05-24T04:39:05.307Z,16.40
2023-05-24T04:41:33.327Z,16.40
2023-05-24T04:44:01.349Z,16.40
2023-05-24T04:46:29.254Z,16.40
2023-05-24T04:48:57.560Z,16.40
2023-05-24T04:51:25.478Z,16.40
2023-05-24T04:53:53.670Z,16.40
2023-05-24T04:56:21.716Z,16.40
2023-05-24T04:58:50.667Z,16.40
2023-05-24T05:01:18.548Z,16.40
2023-05-24T05:03:46.841Z,16.50
2023-05-24T05:06:15.711Z,16.50
2023-05-24T05:08:44.382Z,16.50
2023-05-24T05:11:13.655Z,16.50
2023-05-24T05:13:41.402Z,16.50
2023-05-24T05:16:09.219Z,16.50
2023-05-24T05:18:37.458Z,16.60
2023-05-24T05:21:04.881Z,16.70
2023-05-24T05:23:32.238Z,16.70
2023-05-24T05:26:00.246Z,16.80
2023-05-24T05:28:28.283Z,16.80
2023-05-24T05:30:57.846Z,16.80
2023-05-24T05:33:26.192Z,16.80
2023-05-24T05:35:54.953Z,16.90
2023-05-24T05:38:22.734Z,16.90
2023-05-24T05:40:50.183Z,16.90
2023-05-24T05:43:17.755Z,17.00
2023-05-24T05:45:45.793Z,17.00
2023-05-24T05:48:13.658Z,17.00
2023-05-24T05:50:41.683Z,17.00
2023-05-24T05:53:09.664Z,17.00
2023-05-24T05:55:37.872Z,17.00
2023-05-24T05:58:05.713Z,17.00
2023-05-24T06:00:33.296Z,17.10
2023-05-24T06:03:00.989Z,17.10
2023-05-24T06:05:28.610Z,17.10
2023-05-24T06:07:56.923Z,17.10
2023-05-24T06:10:26.028Z,17.10
2023-05-24T06:12:53.390Z,17.20
2023-05-24T06:15:23.527Z,17.20
2023-05-24T06:17:52.694Z,17.30
2023-05-24T06:20:21.038Z,17.20
2023-05-24T06:22:51.316Z,17.20
2023-05-24T06:25:21.472Z,17.10
2023-05-24T06:27:49.435Z,17.20
2023-05-24T06:30:17.043Z,17.20
2023-05-24T06:32:45.022Z,17.10
2023-05-24T06:35:12.245Z,17.20
2023-05-24T06:37:40.270Z,17.20
2023-05-24T06:40:09.922Z,17.30
2023-05-24T06:42:37.666Z,17.30
2023-05-24T06:45:05.911Z,17.30
2023-05-24T06:47:34.976Z,17.30
2023-05-24T06:50:04.751Z,17.30
2023-05-24T06:52:32.498Z,17.40
2023-05-24T06:55:00.218Z,17.40
2023-05-24T06:57:28.237Z,17.50
2023-05-24T06:59:55.543Z,17.50
2023-05-24T07:02:26.714Z,17.50
2023-05-24T07:04:54.600Z,17.60
2023-05-24T07:07:22.303Z,17.60
2023-05-24T07:09:49.901Z,17.70
2023-05-24T07:12:18.581Z,17.70
2023-05-24T07:14:47.147Z,17.70
2023-05-24T07:17:15.214Z,17.60
2023-05-24T07:19:43.098Z,17.60
2023-05-24T07:22:10.677Z,17.50
2023-05-24T07:24:38.985Z,17.50
2023-05-24T07:27:06.948Z,17.50
2023-05-24T07:29:34.318Z,17.60
2023-05-24T07:32:01.843Z,17.60
2023-05-24T07:34:30.626Z,17.70
2023-05-24T07:37:01.185Z,17.70
2023-05-24T07:39:28.846Z,17.70
2023-05-24T07:41:56.822Z,17.70
2023-05-24T07:44:24.589Z,17.70
2023-05-24T07:46:52.287Z,17.70
2023-05-24T07:49:19.765Z,17.70
2023-05-24T07:51:48.082Z,17.70
2023-05-24T07:54:15.791Z,17.70
2023-05-24T07:56:43.426Z,17.80
2023-05-24T07:59:12.020Z,17.80
2023-05-24T08:01:39.732Z,17.90
2023-05-24T08:04:10.238Z,18.00
2023-05-24T08:06:37.937Z,18.10
2023-05-24T08:09:07.860Z,18.20
2023-05-24T08:11:35.463Z,18.30
2023-05-24T08:14:04.288Z,18.40
2023-05-24T08:16:32.973Z,18.40
2023-05-24T08:19:01.923Z,18.60
2023-05-24T08:21:30.164Z,18.50
2023-05-24T08:23:58.941Z,18.50
2023-05-24T08:26:27.275Z,18.60
2023-05-24T08:28:56.268Z,18.70
2023-05-24T08:31:24.270Z,19.00
2023-05-24T08:33:53.413Z,19.10
2023-05-24T08:36:21.068Z,19.20
2023-05-24T08:38:49.232Z,19.30
2023-05-24T08:41:17.047Z,19.40
2023-05-24T08:43:47.951Z,19.50
2023-05-24T08:46:17.806Z,19.50
2023-05-24T08:48:48.674Z,19.60
2023-05-24T08:51:17.471Z,19.60
2023-05-24T08:53:49.138Z,19.50
2023-05-24T08:56:19.124Z,19.40
2023-05-24T08:58:47.806Z,19.40
2023-05-24T09:01:17.671Z,19.40
2023-05-24T09:03:48.250Z,19.30
2023-05-24T09:06:20.688Z,19.30
2023-05-24T09:08:53.305Z,19.30
2023-05-24T09:11:27.208Z,19.40
2023-05-24T09:13:57.262Z,19.60
2023-05-24T09:16:25.631Z,19.70
2023-05-24T09:18:53.883Z,19.80
2023-05-24T09:21:23.128Z,19.90
2023-05-24T09:23:51.853Z,20.10
2023-05-24T09:26:19.483Z,20.20
2023-05-24T09:28:54.434Z,20.30
2023-05-24T09:31:33.861Z,20.20
2023-05-24T09:34:02.433Z,20.10
2023-05-24T09:36:33.249Z,20.00
2023-05-24T09:39:11.816Z,19.90
2023-05-24T09:41:39.972Z,19.80
2023-05-24T09:44:08.029Z,19.60
2023-05-24T09:46:38.932Z,19.50
2023-05-24T09:49:09.464Z,19.50
2023-05-24T09:51:39.475Z,19.20
2023-05-24T09:54:09.982Z,19.00
2023-05-24T09:56:40.890Z,18.90
2023-05-24T09:59:10.290Z,18.80
2023-05-24T10:01:38.777Z,18.70
2023-05-24T10:04:10.007Z,18.60
2023-05-24T10:06:39.196Z,18.50
2023-05-24T10:09:09.137Z,18.40
2023-05-24T10:11:38.061Z,18.40
2023-05-24T10:14:07.509Z,18.40
2023-05-24T10:16:37.313Z,18.40
2023-05-24T10:19:06.506Z,18.60
2023-05-24T10:21:40.981Z,18.50
2023-05-24T10:24:12.391Z,18.40
2023-05-24T10:26:43.021Z,18.30
2023-05-24T10:29:24.059Z,18.00
2023-05-24T10:31:53.914Z,18.00
2023-05-24T10:34:22.542Z,18.00
2023-05-24T10:36:51.934Z,18.00
2023-05-24T10:39:22.565Z,18.20
2023-05-24T10:41:50.337Z,18.40
2023-05-24T10:44:22.175Z,18.60
2023-05-24T10:47:14.063Z,18.60
2023-05-24T10:50:00.403Z,18.50
2023-05-24T10:52:36.519Z,18.60
2023-05-24T10:55:08.795Z,18.80
2023-05-24T10:57:39.309Z,18.80
2023-05-24T11:03:02.359Z,19.10
2023-05-24T11:05:47.091Z,19.20
2023-05-24T11:08:14.966Z,19.10
2023-05-24T11:10:45.825Z,19.20
2023-05-24T11:13:14.120Z,19.30
2023-05-24T11:15:51.306Z,19.40
2023-05-24T11:18:24.388Z,19.30
2023-05-24T11:20:52.818Z,19.30
2023-05-24T11:23:20.773Z,19.20
2023-05-24T11:25:48.876Z,19.10
2023-05-24T11:28:17.517Z,19.10
2023-05-24T11:30:47.761Z,19.10
2023-05-24T11:33:16.545Z,19.00
2023-05-24T11:35:45.075Z,19.00
2023-05-24T11:38:16.459Z,18.90
2023-05-24T11:40:46.023Z,18.80
2023-05-24T11:43:16.775Z,18.80
2023-05-24T11:45:49.198Z,18.90
2023-05-24T11:48:18.666Z,18.90
2023-05-24T11:50:50.909Z,18.80
2023-05-24T11:53:21.235Z,18.80
2023-05-24T11:55:49.647Z,18.70
2023-05-24T11:58:17.282Z,18.80
2023-05-24T12:00:45.134Z,18.60
2023-05-24T12:03:13.586Z,18.80
2023-05-24T12:05:44.150Z,18.90
2023-05-24T12:08:16.927Z,19.20
2023-05-24T12:10:44.918Z,19.30
2023-05-24T12:13:30.279Z,19.20
2023-05-24T12:15:59.306Z,19.20
2023-05-24T12:18:27.718Z,19.50
2023-05-24T12:20:55.619Z,19.40
2023-05-24T12:23:28.185Z,19.80
2023-05-24T12:26:01.177Z,20.00
2023-05-24T12:28:36.846Z,20.40
2023-05-24T12:31:06.247Z,20.70
2023-05-24T12:33:34.626Z,21.00
2023-05-24T12:36:03.369Z,21.10
2023-05-24T12:38:32.111Z,21.20
2023-05-24T12:41:11.424Z,21.30
2023-05-24T12:43:43.081Z,21.40
2023-05-24T12:46:11.279Z,21.80
2023-05-24T12:48:38.717Z,21.80
2023-05-24T12:51:06.170Z,21.90
2023-05-24T12:53:34.121Z,21.50
2023-05-24T12:56:02.247Z,21.50
2023-05-24T12:58:30.164Z,21.40
2023-05-24T13:00:58.028Z,21.30
2023-05-24T13:03:26.030Z,21.30
2023-05-24T13:05:55.137Z,21.10
2023-05-24T13:08:23.055Z,21.00
2023-05-24T13:10:51.669Z,20.90
2023-05-24T13:13:19.106Z,21.10
2023-05-24T13:15:47.951Z,21.20
2023-05-24T13:18:16.597Z,21.20
2023-05-24T13:20:44.615Z,21.20
2023-05-24T13:23:13.360Z,21.30
2023-05-24T13:25:41.325Z,21.30
2023-05-24T13:28:09.278Z,21.40
2023-05-24T13:30:38.349Z,21.50
2023-05-24T13:33:07.197Z,21.50
2023-05-24T13:35:34.604Z,21.60
2023-05-24T13:38:02.492Z,21.80
2023-05-24T13:40:30.625Z,22.10
2023-05-24T13:42:58.447Z,22.30
2023-05-24T13:45:26.103Z,22.40
2023-05-24T13:47:58.788Z,22.20
2023-05-24T13:50:27.424Z,22.10
2023-05-24T13:52:55.550Z,21.60
2023-05-24T13:55:23.492Z,21.70
2023-05-24T13:57:52.423Z,21.80
2023-05-24T14:00:21.203Z,21.80
2023-05-24T14:02:50.071Z,21.80
2023-05-24T14:05:27.281Z,21.70
2023-05-24T14:07:57.849Z,21.70
2023-05-24T14:10:26.957Z,21.60
2023-05-24T14:13:11.828Z,21.70
2023-05-24T14:15:43.053Z,21.80
2023-05-24T14:18:11.160Z,21.90
2023-05-24T14:20:40.745Z,22.10
2023-05-24T14:23:10.333Z,22.10
2023-05-24T14:25:39.414Z,22.00
2023-05-24T14:28:08.942Z,21.70
2023-05-24T14:30:38.444Z,21.40
2023-05-24T14:33:06.820Z,21.20
2023-05-24T14:35:39.182Z,20.90
2023-05-24T14:38:08.999Z,20.70
2023-05-24T14:40:39.537Z,20.50
2023-05-24T14:43:10.712Z,20.30
2023-05-24T14:45:42.287Z,20.20
2023-05-24T14:48:12.631Z,20.10
2023-05-24T14:50:41.625Z,20.10
2023-05-24T14:53:12.778Z,20.10
2023-05-24T14:55:43.893Z,20.20
2023-05-24T14:58:13.436Z,20.20
2023-05-24T15:00:43.219Z,20.30
2023-05-24T15:03:13.120Z,20.20
2023-05-24T15:05:43.029Z,20.20
2023-05-24T15:08:11.860Z,20.20
2023-05-24T15:10:40.496Z,20.20
2023-05-24T15:13:08.725Z,20.10
2023-05-24T15:15:36.969Z,20.10
2023-05-24T15:18:05.455Z,20.20
2023-05-24T15:20:35.803Z,20.20
2023-05-24T15:23:04.156Z,20.20
2023-05-24T15:25:32.066Z,20.20
2023-05-24T15:27:59.819Z,20.40
2023-05-24T15:30:27.615Z,20.50
2023-05-24T15:32:55.725Z,20.60
2023-05-24T15:35:23.546Z,20.70
2023-05-24T15:37:51.281Z,20.90
2023-05-24T15:40:18.996Z,21.00
2023-05-24T15:42:46.720Z,20.90
2023-05-24T15:45:14.981Z,20.80
2023-05-24T15:47:42.600Z,20.70
2023-05-24T15:50:10.692Z,20.60
2023-05-24T15:52:38.582Z,20.60
2023-05-24T15:55:07.151Z,20.60
2023-05-24T15:57:35.245Z,20.60
2023-05-24T16:00:03.036Z,20.50
2023-05-24T16:02:39.754Z,20.40
2023-05-24T16:05:08.097Z,20.30
2023-05-24T16:07:36.345Z,20.20
2023-05-24T16:10:06.181Z,20.10
2023-05-24T16:12:37.210Z,20.10
2023-05-24T16:15:07.628Z,20.00
2023-05-24T16:17:35.576Z,19.80
2023-05-24T16:20:03.984Z,19.80
2023-05-24T16:22:34.106Z,19.60
2023-05-24T16:25:01.686Z,19.50
2023-05-24T16:27:29.731Z,19.40
2023-05-24T16:29:57.136Z,19.30
2023-05-24T16:32:24.480Z,19.20
2023-05-24T16:34:55.933Z,19.10
2023-05-24T16:37:25.544Z,19.10
2023-05-24T16:39:53.166Z,19.10
2023-05-24T16:42:21.472Z,19.10
2023-05-24T16:44:49.047Z,19.10
2023-05-24T16:47:19.808Z,19.00
2023-05-24T16:49:48.980Z,18.90
2023-05-24T16:52:16.729Z,18.80
2023-05-24T16:54:44.709Z,18.70
2023-05-24T16:57:13.198Z,18.70
2023-05-24T16:59:42.506Z,18.60
2023-05-24T17:02:10.702Z,18.60
2023-05-24T17:04:38.559Z,18.50
2023-05-24T17:07:06.142Z,18.50
2023-05-24T17:09:33.971Z,18.50
2023-05-24T17:12:03.798Z,18.40
2023-05-24T17:14:31.570Z,18.40
2023-05-24T17:16:58.747Z,18.30
2023-05-24T17:19:26.294Z,18.30
2023-05-24T17:21:53.411Z,18.30
2023-05-24T17:24:22.545Z,18.20
2023-05-24T17:26:50.306Z,18.20
2023-05-24T17:29:17.413Z,18.10
2023-05-24T17:31:44.909Z,18.10
2023-05-24T17:34:12.198Z,18.00
2023-05-24T17:36:39.688Z,17.90
2023-05-24T17:39:07.813Z,17.80
2023-05-24T17:41:35.088Z,17.80
2023-05-24T17:44:02.601Z,17.70
2023-05-24T17:46:32.028Z,17.60
2023-05-24T17:49:02.633Z,17.50
2023-05-24T17:51:31.897Z,17.50
2023-05-24T17:54:00.254Z,17.40
2023-05-24T17:56:28.057Z,17.40
2023-05-24T17:59:00.159Z,17.30
2023-05-24T18:01:29.476Z,17.20
2023-05-24T18:03:57.090Z,17.20
2023-05-24T18:06:25.219Z,17.20
2023-05-24T18:08:52.961Z,17.20
2023-05-24T18:11:20.270Z,17.10
2023-05-24T18:13:47.515Z,17.20
2023-05-24T18:16:14.869Z,17.10
2023-05-24T18:18:44.226Z,17.10
2023-05-24T18:21:13.180Z,17.10
2023-05-24T18:23:42.570Z,17.00
2023-05-24T18:26:11.515Z,17.00
2023-05-24T18:28:39.445Z,17.00
2023-05-24T18:31:10.631Z,17.00
2023-05-24T18:33:38.156Z,16.90
2023-05-24T18:36:05.892Z,16.90
2023-05-24T18:38:35.032Z,16.90
2023-05-24T18:41:06.497Z,16.80
2023-05-24T18:43:34.454Z,16.80
2023-05-24T18:46:02.465Z,16.70
2023-05-24T18:48:30.124Z,16.70
2023-05-24T18:50:57.568Z,16.70
2023-05-24T18:53:25.966Z,16.60
2023-05-24T18:55:53.283Z,16.60
2023-05-24T18:58:20.867Z,16.60
2023-05-24T19:00:48.108Z,16.70
2023-05-24T19:03:16.039Z,16.60
2023-05-24T19:05:44.114Z,16.60
2023-05-24T19:08:12.251Z,16.60
2023-05-24T19:10:39.669Z,16.60
2023-05-24T19:13:07.106Z,16.60
2023-05-24T19:15:35.937Z,16.60
2023-05-24T19:18:03.745Z,16.60
2023-05-24T19:20:31.480Z,16.60
2023-05-24T19:22:59.024Z,16.50
2023-05-24T19:25:26.605Z,16.50
2023-05-24T19:27:59.834Z,16.50
2023-05-24T19:30:28.159Z,16.50
2023-05-24T19:32:55.629Z,16.50
2023-05-24T19:35:23.069Z,16.50
2023-05-24T19:37:50.467Z,16.50
2023-05-24T19:40:17.660Z,16.40
2023-05-24T19:42:44.971Z,16.40
2023-05-24T19:45:13.563Z,16.40
2023-05-24T19:47:41.437Z,16.40
2023-05-24T19:50:09.235Z,16.30
2023-05-24T19:52:36.505Z,16.30
2023-05-24T19:55:04.007Z,16.30
2023-05-24T19:57:31.542Z,16.30
2023-05-24T19:59:59.130Z,16.30
2023-05-24T20:02:26.926Z,16.30
2023-05-24T20:04:54.294Z,16.30
2023-05-24T20:07:21.623Z,16.30
2023-05-24T20:09:50.224Z,16.20
2023-05-24T20:12:17.520Z,16.20
2023-05-24T20:14:44.864Z,16.20
2023-05-24T20:17:12.183Z,16.20
2023-05-24T20:19:39.520Z,16.10
2023-05-24T20:22:06.835Z,16.10
2023-05-24T20:24:34.122Z,16.00
2023-05-24T20:27:02.487Z,16.00
2023-05-24T20:29:29.832Z,16.00
2023-05-24T20:31:57.285Z,16.00
2023-05-24T20:34:24.752Z,16.00
2023-05-24T20:36:51.922Z,15.90
2023-05-24T20:39:19.165Z,15.90
2023-05-24T20:41:46.523Z,15.90
2023-05-24T20:44:13.664Z,16.00
2023-05-24T20:46:41.568Z,15.90
2023-05-24T20:49:09.236Z,15.90
2023-05-24T20:51:36.637Z,15.90
2023-05-24T20:54:05.290Z,15.90
2023-05-24T20:56:32.795Z,15.90
2023-05-24T20:59:02.320Z,15.90
2023-05-24T21:01:29.707Z,15.80
2023-05-24T21:03:57.198Z,15.80
2023-05-24T21:06:25.911Z,15.80
2023-05-24T21:08:53.113Z,15.80
2023-05-24T21:11:20.797Z,15.80
2023-05-24T21:13:48.083Z,15.80
2023-05-24T21:16:15.717Z,15.80
2023-05-24T21:18:42.978Z,15.70
2023-05-24T21:21:11.243Z,15.80
2023-05-24T21:23:38.382Z,15.70
2023-05-24T21:26:06.062Z,15.80
2023-05-24T21:28:33.277Z,15.70
2023-05-24T21:31:01.073Z,15.70
2023-05-24T21:33:28.250Z,15.60
2023-05-24T21:35:56.183Z,15.60
2023-05-24T21:38:23.327Z,15.70
2023-05-24T21:40:50.698Z,15.60
2023-05-24T21:43:17.985Z,15.60
2023-05-24T21:45:45.447Z,15.70
2023-05-24T21:48:13.420Z,15.60
2023-05-24T21:50:40.672Z,15.60
2023-05-24T21:53:07.811Z,15.60
2023-05-24T21:55:35.026Z,15.60
2023-05-24T21:58:02.518Z,15.50
2023-05-24T22:00:29.776Z,15.50
2023-05-24T22:02:57.163Z,15.50
2023-05-24T22:05:26.193Z,15.50
2023-05-24T22:07:54.989Z,15.50
2023-05-24T22:10:22.261Z,15.50
2023-05-24T22:12:49.522Z,15.60
2023-05-24T22:15:16.851Z,15.50
2023-05-24T22:17:44.183Z,15.50
2023-05-24T22:20:12.016Z,15.50
2023-05-24T22:22:48.861Z,15.50
2023-05-24T22:25:19.549Z,15.50
2023-05-24T22:27:48.918Z,15.50
2023-05-24T22:30:17.375Z,15.50
2023-05-24T22:32:45.053Z,15.50
2023-05-24T22:35:12.379Z,15.50
2023-05-24T22:37:39.589Z,15.50
2023-05-24T22:40:07.894Z,15.40
2023-05-24T22:42:35.085Z,15.40
2023-05-24T22:45:02.235Z,15.40
2023-05-24T22:47:33.423Z,15.40
2023-05-24T22:50:02.267Z,15.40
2023-05-24T22:52:33.890Z,15.30
2023-05-24T22:55:02.354Z,15.30
2023-05-24T22:57:29.952Z,15.30
2023-05-24T22:59:57.309Z,15.30
2023-05-24T23:02:24.739Z,15.30
2023-05-24T23:04:53.895Z,15.30
2023-05-24T23:07:21.772Z,15.30
2023-05-24T23:09:49.602Z,15.30
2023-05-24T23:12:17.987Z,15.30
2023-05-24T23:14:46.677Z,15.30
2023-05-24T23:17:14.260Z,15.30
2023-05-24T23:19:42.727Z,15.30
2023-05-24T23:22:12.115Z,15.20
2023-05-24T23:24:42.911Z,15.20
2023-05-24T23:27:10.369Z,15.10
2023-05-24T23:29:41.106Z,15.20
2023-05-24T23:32:09.089Z,15.10
2023-05-24T23:34:37.311Z,15.10
2023-05-24T23:37:05.565Z,15.10
2023-05-24T23:39:32.826Z,15.10
2023-05-24T23:42:00.008Z,15.10
2023-05-24T23:44:27.241Z,15.10
2023-05-24T23:46:54.479Z,15.00
2023-05-24T23:49:21.787Z,15.00
2023-05-24T23:51:49.044Z,15.00
2023-05-24T23:54:16.508Z,15.00
2023-05-24T23:56:43.700Z,15.00
2023-05-24T23:59:11.522Z,15.00
